createdAt,value
2023-04-21T00:00:09.959Z,23.17
2023-04-21T00:02:39.956Z,26.98
2023-04-21T00:05:11.057Z,27.13
2023-04-21T00:07:38.318Z,28.38
2023-04-21T00:10:10.322Z,25.80
2023-04-21T00:12:37.659Z,26.25
2023-04-21T00:15:05.308Z,25.42
2023-04-21T00:17:32.282Z,24.40
2023-04-21T00:20:00.059Z,25.55
2023-04-21T00:22:26.909Z,26.92
2023-04-21T00:24:53.800Z,22.98
2023-04-21T00:27:20.839Z,26.85
2023-04-21T00:29:47.587Z,24.65
2023-04-21T00:32:14.643Z,24.15
2023-04-21T00:34:41.556Z,29.13
2023-04-21T00:37:08.390Z,27.05
2023-04-21T00:39:35.423Z,24.38
2023-04-21T00:42:02.497Z,26.20
2023-04-21T00:44:29.455Z,24.50
2023-04-21T00:46:56.606Z,26.65
2023-04-21T00:49:25.095Z,26.92
2023-04-21T00:51:52.579Z,28.90
2023-04-21T00:54:19.945Z,28.40
2023-04-21T00:56:47.002Z,28.38
2023-04-21T00:59:13.874Z,25.02
2023-04-21T01:01:41.541Z,23.30
2023-04-21T01:04:10.417Z,24.85
2023-04-21T01:06:37.683Z,24.80
2023-04-21T01:09:05.220Z,26.65
2023-04-21T01:11:32.250Z,27.30
2023-04-21T01:13:59.003Z,28.42
2023-04-21T01:16:27.021Z,25.05
2023-04-21T01:18:56.247Z,25.67
2023-04-21T01:21:23.689Z,28.20
2023-04-21T01:23:50.801Z,24.13
2023-04-21T01:26:22.672Z,28.77
2023-04-21T01:28:49.884Z,29.85
2023-04-21T01:31:18.251Z,23.40
2023-04-21T01:33:45.630Z,26.67
2023-04-21T01:36:12.570Z,25.55
2023-04-21T01:38:43.222Z,30.92
2023-04-21T01:41:10.868Z,26.70
2023-04-21T01:43:38.568Z,25.67
2023-04-21T01:46:06.701Z,28.73
2023-04-21T01:48:33.483Z,27.17
2023-04-21T01:51:00.261Z,31.65
2023-04-21T01:53:27.099Z,30.73
2023-04-21T01:55:53.993Z,28.42
2023-04-21T01:58:21.620Z,27.88
2023-04-21T02:00:48.418Z,28.13
2023-04-21T02:03:15.392Z,26.63
2023-04-21T02:05:42.362Z,30.27
2023-04-21T02:08:09.116Z,27.60
2023-04-21T02:10:35.967Z,28.95
2023-04-21T02:13:02.841Z,29.60
2023-04-21T02:15:29.735Z,30.48
2023-04-21T02:17:56.624Z,31.00
2023-04-21T02:20:23.454Z,32.30
2023-04-21T02:22:50.250Z,30.23
2023-04-21T02:25:17.063Z,32.47
2023-04-21T02:27:43.779Z,31.52
2023-04-21T02:30:11.210Z,30.88
2023-04-21T02:32:38.107Z,29.75
2023-04-21T02:35:05.384Z,30.27
2023-04-21T02:37:32.126Z,34.60
2023-04-21T02:39:58.932Z,32.25
2023-04-21T02:42:25.717Z,30.15
2023-04-21T02:44:52.465Z,29.38
2023-04-21T02:47:19.240Z,33.25
2023-04-21T02:49:46.074Z,33.78
2023-04-21T02:52:12.867Z,29.83
2023-04-21T02:54:39.587Z,30.77
2023-04-21T02:57:06.367Z,32.10
2023-04-21T02:59:33.213Z,29.20
2023-04-21T03:02:00.180Z,30.85
2023-04-21T03:04:27.299Z,31.98
2023-04-21T03:06:55.384Z,34.97
2023-04-21T03:09:22.273Z,28.67
2023-04-21T03:11:49.059Z,32.35
2023-04-21T03:14:15.780Z,33.05
2023-04-21T03:16:42.607Z,29.08
2023-04-21T03:19:09.405Z,35.90
2023-04-21T03:21:39.381Z,30.73
2023-04-21T03:24:07.431Z,34.78
2023-04-21T03:26:34.291Z,35.83
2023-04-21T03:29:01.298Z,36.40
2023-04-21T03:31:28.204Z,39.33
2023-04-21T03:33:55.101Z,36.88
2023-04-21T03:36:22.018Z,36.55
2023-04-21T03:38:48.757Z,35.13
2023-04-21T03:41:15.787Z,34.45
2023-04-21T03:43:42.595Z,50.90
2023-04-21T03:46:18.142Z,44.05
2023-04-21T03:48:45.508Z,54.28
2023-04-21T03:51:12.265Z,99.68
2023-04-21T03:53:39.126Z,58.90
2023-04-21T03:56:06.251Z,45.08
2023-04-21T03:58:32.989Z,39.65
2023-04-21T04:00:59.753Z,66.03
2023-04-21T04:03:26.710Z,102.38
2023-04-21T04:05:53.646Z,86.82
2023-04-21T04:08:20.826Z,55.83
2023-04-21T04:10:47.599Z,54.00
2023-04-21T04:13:14.360Z,64.65
2023-04-21T04:15:41.164Z,44.35
2023-04-21T04:18:08.071Z,43.72
2023-04-21T04:20:36.988Z,35.95
2023-04-21T04:23:03.796Z,34.65
2023-04-21T04:25:31.121Z,34.47
2023-04-21T04:27:57.975Z,34.20
2023-04-21T04:30:27.951Z,34.55
2023-04-21T04:32:55.475Z,31.15
2023-04-21T04:35:22.420Z,33.90
2023-04-21T04:37:49.735Z,33.97
2023-04-21T04:40:16.499Z,33.72
2023-04-21T04:42:45.477Z,35.55
2023-04-21T04:45:13.940Z,36.15
2023-04-21T04:47:40.909Z,34.28
2023-04-21T04:50:07.946Z,35.22
2023-04-21T04:52:34.912Z,34.05
2023-04-21T04:55:01.807Z,34.88
2023-04-21T04:57:28.589Z,33.60
2023-04-21T04:59:56.789Z,40.22
2023-04-21T05:02:24.470Z,33.70
2023-04-21T05:04:51.626Z,32.67
2023-04-21T05:07:18.692Z,31.83
2023-04-21T05:09:45.404Z,31.35
2023-04-21T05:12:12.124Z,27.85
2023-04-21T05:14:38.839Z,32.25
2023-04-21T05:17:05.729Z,34.72
2023-04-21T05:19:36.312Z,38.47
2023-04-21T05:22:03.359Z,33.30
2023-04-21T05:24:30.235Z,34.17
2023-04-21T05:26:57.047Z,35.78
2023-04-21T05:29:23.823Z,30.50
2023-04-21T05:31:50.726Z,31.83
2023-04-21T05:34:17.640Z,33.05
2023-04-21T05:36:45.040Z,31.75
2023-04-21T05:39:11.767Z,32.55
2023-04-21T05:41:38.577Z,32.60
2023-04-21T05:44:05.518Z,37.67
2023-04-21T05:46:34.849Z,33.55
2023-04-21T05:49:04.852Z,29.67
2023-04-21T05:51:32.152Z,30.20
2023-04-21T05:53:58.923Z,27.13
2023-04-21T05:56:26.103Z,30.77
2023-04-21T05:58:52.897Z,31.00
2023-04-21T06:01:19.797Z,32.88
2023-04-21T06:06:15.155Z,30.77
2023-04-21T06:08:42.152Z,29.77
2023-04-21T06:11:09.096Z,35.65
2023-04-21T06:13:38.063Z,39.33
2023-04-21T06:16:06.011Z,41.25
2023-04-21T06:18:32.830Z,44.92
2023-04-21T06:20:59.654Z,34.92
2023-04-21T06:23:26.473Z,32.75
2023-04-21T06:26:19.741Z,32.97
2023-04-21T06:28:46.666Z,33.55
2023-04-21T06:31:16.298Z,31.27
2023-04-21T06:33:43.101Z,31.80
2023-04-21T06:36:09.969Z,29.40
2023-04-21T06:38:36.814Z,30.35
2023-04-21T06:41:04.686Z,28.58
2023-04-21T06:43:31.680Z,31.00
2023-04-21T06:45:58.470Z,30.58
2023-04-21T06:48:25.312Z,33.80
2023-04-21T06:50:52.455Z,32.60
2023-04-21T06:53:19.311Z,29.70
2023-04-21T06:55:46.307Z,29.77
2023-04-21T06:58:13.232Z,30.00
2023-04-21T07:00:40.200Z,30.75
2023-04-21T07:03:07.162Z,29.83
2023-04-21T07:05:37.072Z,29.08
2023-04-21T07:08:03.927Z,27.52
2023-04-21T07:10:31.318Z,27.42
2023-04-21T07:12:58.190Z,27.60
2023-04-21T07:15:25.065Z,29.42
2023-04-21T07:18:40.960Z,30.27
2023-04-21T07:21:09.081Z,30.33
2023-04-21T07:23:36.791Z,33.53
2023-04-21T07:26:04.715Z,32.25
2023-04-21T07:28:31.604Z,32.25
2023-04-21T07:30:59.249Z,31.00
2023-04-21T07:33:28.126Z,31.00
2023-04-21T07:35:55.146Z,30.88
2023-04-21T07:38:22.013Z,33.80
2023-04-21T07:40:48.916Z,31.70
2023-04-21T07:43:15.988Z,32.15
2023-04-21T07:45:43.103Z,32.45
2023-04-21T07:48:09.875Z,31.27
2023-04-21T07:50:37.518Z,30.63
2023-04-21T07:53:05.334Z,33.47
2023-04-21T07:55:32.923Z,32.88
2023-04-21T07:57:59.674Z,33.25
2023-04-21T08:00:26.822Z,31.83
2023-04-21T08:02:53.715Z,30.50
2023-04-21T08:05:20.839Z,28.60
2023-04-21T08:07:47.671Z,27.83
2023-04-21T08:10:14.862Z,27.10
2023-04-21T08:12:41.645Z,26.45
2023-04-21T08:15:08.928Z,28.80
2023-04-21T08:17:35.987Z,26.27
2023-04-21T08:20:03.138Z,27.20
2023-04-21T08:22:30.734Z,29.48
2023-04-21T08:24:57.836Z,24.10
2023-04-21T08:27:25.692Z,29.50
2023-04-21T08:29:52.573Z,23.88
2023-04-21T08:32:24.132Z,25.17
2023-04-21T08:34:52.009Z,25.23
2023-04-21T08:37:20.425Z,22.67
2023-04-21T08:39:48.832Z,25.02
2023-04-21T08:42:20.317Z,19.65
2023-04-21T08:44:48.581Z,19.27
2023-04-21T08:47:16.690Z,21.70
2023-04-21T08:49:47.840Z,19.45
2023-04-21T08:52:14.988Z,19.55
2023-04-21T08:54:42.150Z,18.98
2023-04-21T08:57:15.208Z,21.60
2023-04-21T08:59:43.361Z,24.77
2023-04-21T09:02:19.089Z,20.13
2023-04-21T09:04:48.094Z,23.50
2023-04-21T09:07:32.158Z,18.27
2023-04-21T09:10:02.056Z,19.73
2023-04-21T09:12:32.758Z,17.30
2023-04-21T09:15:03.282Z,17.10
2023-04-21T09:17:38.626Z,16.08
2023-04-21T09:20:23.500Z,19.88
2023-04-21T09:22:55.221Z,18.05
2023-04-21T09:25:25.196Z,17.58
2023-04-21T09:27:54.145Z,18.48
2023-04-21T09:30:21.093Z,16.52
2023-04-21T09:32:48.002Z,18.23
2023-04-21T09:35:14.958Z,17.80
2023-04-21T09:37:44.515Z,20.50
2023-04-21T09:40:15.027Z,21.10
2023-04-21T09:42:43.932Z,16.92
2023-04-21T09:47:43.005Z,17.27
2023-04-21T09:50:13.281Z,19.40
2023-04-21T09:52:42.777Z,21.00
2023-04-21T09:55:13.662Z,22.08
2023-04-21T09:57:43.226Z,20.80
2023-04-21T10:00:13.630Z,19.42
2023-04-21T10:02:48.040Z,19.92
2023-04-21T10:05:18.006Z,19.67
2023-04-21T10:07:46.334Z,20.27
2023-04-21T10:10:27.160Z,19.80
2023-04-21T10:13:01.051Z,19.27
2023-04-21T10:15:38.379Z,23.60
2023-04-21T10:18:16.266Z,21.58
2023-04-21T10:21:02.602Z,19.13
2023-04-21T10:23:42.070Z,24.55
2023-04-21T10:26:19.454Z,21.65
2023-04-21T10:28:46.137Z,21.08
2023-04-21T10:31:19.520Z,23.80
2023-04-21T10:34:07.830Z,20.85
2023-04-21T10:36:53.980Z,54.17
2023-04-21T10:39:48.528Z,21.83
2023-04-21T10:42:20.891Z,21.15
2023-04-21T10:44:56.228Z,21.15
2023-04-21T10:47:38.445Z,22.00
2023-04-21T10:50:22.104Z,21.15
2023-04-21T10:52:56.822Z,20.42
2023-04-21T10:55:27.464Z,21.45
2023-04-21T10:57:54.481Z,22.33
2023-04-21T11:00:23.973Z,23.10
2023-04-21T11:03:05.708Z,20.05
2023-04-21T11:08:14.532Z,20.10
2023-04-21T11:10:47.386Z,20.48
2023-04-21T11:13:14.200Z,20.40
2023-04-21T11:15:41.528Z,62.38
2023-04-21T11:18:09.775Z,21.85
2023-04-21T11:20:41.848Z,21.67
2023-04-21T11:23:17.937Z,17.73
2023-04-21T11:25:47.519Z,18.42
2023-04-21T11:28:22.061Z,16.52
2023-04-21T11:30:48.876Z,17.88
2023-04-21T11:33:17.423Z,18.73
2023-04-21T11:35:45.439Z,17.88
2023-04-21T11:38:14.787Z,25.80
2023-04-21T11:40:46.705Z,19.95
2023-04-21T11:43:13.540Z,21.30
2023-04-21T11:45:43.481Z,19.48
2023-04-21T11:48:17.270Z,22.98
2023-04-21T11:50:48.935Z,20.63
2023-04-21T11:53:16.701Z,16.60
2023-04-21T11:55:46.629Z,18.25
2023-04-21T11:58:16.196Z,19.70
2023-04-21T12:00:46.510Z,15.15
2023-04-21T12:03:13.998Z,16.70
2023-04-21T12:05:41.022Z,13.52
2023-04-21T12:08:15.465Z,13.43
2023-04-21T12:10:47.632Z,15.32
2023-04-21T12:13:25.761Z,16.20
2023-04-21T12:15:52.692Z,13.68
2023-04-21T12:18:19.562Z,14.85
2023-04-21T12:20:51.378Z,14.93
2023-04-21T12:23:19.024Z,14.13
2023-04-21T12:25:47.019Z,13.32
2023-04-21T12:28:16.865Z,10.30
2023-04-21T12:30:46.547Z,9.95
2023-04-21T12:33:13.495Z,11.95
2023-04-21T12:35:40.415Z,12.80
2023-04-21T12:38:07.169Z,9.50
2023-04-21T12:40:37.034Z,10.75
2023-04-21T12:43:03.929Z,11.70
2023-04-21T12:45:31.993Z,11.23
2023-04-21T12:47:59.543Z,9.77
2023-04-21T12:50:29.465Z,10.52
2023-04-21T12:52:56.320Z,10.45
2023-04-21T12:55:23.488Z,9.63
2023-04-21T12:57:50.729Z,9.52
2023-04-21T13:00:17.745Z,9.50
2023-04-21T13:02:44.684Z,10.75
2023-04-21T13:05:12.753Z,9.82
2023-04-21T13:07:39.590Z,12.48
2023-04-21T13:10:07.158Z,11.25
2023-04-21T13:12:33.987Z,12.35
2023-04-21T13:15:01.058Z,10.68
2023-04-21T13:17:28.169Z,10.45
2023-04-21T13:19:55.100Z,10.40
2023-04-21T13:22:22.617Z,11.93
2023-04-21T13:24:49.401Z,11.40
2023-04-21T13:27:16.242Z,11.90
2023-04-21T13:29:43.197Z,13.38
2023-04-21T13:32:10.170Z,9.20
2023-04-21T13:34:37.080Z,12.65
2023-04-21T13:37:05.566Z,10.60
2023-04-21T13:39:32.606Z,11.02
2023-04-21T13:41:59.930Z,10.98
2023-04-21T13:44:27.377Z,10.95
2023-04-21T13:46:54.567Z,11.82
2023-04-21T13:49:21.375Z,12.20
2023-04-21T13:51:48.213Z,11.23
2023-04-21T13:54:15.016Z,14.15
2023-04-21T13:56:41.966Z,15.20
2023-04-21T13:59:10.902Z,12.07
2023-04-21T14:01:37.989Z,12.38
2023-04-21T14:04:04.945Z,10.23
2023-04-21T14:06:33.278Z,8.02
2023-04-21T14:09:00.145Z,7.93
2023-04-21T14:11:27.025Z,10.07
2023-04-21T14:14:08.474Z,10.13
2023-04-21T14:16:36.670Z,10.95
2023-04-21T14:19:03.556Z,9.68
2023-04-21T14:21:31.037Z,9.57
2023-04-21T14:23:57.869Z,9.75
2023-04-21T14:26:24.707Z,9.15
2023-04-21T14:28:51.423Z,9.68
2023-04-21T14:31:21.146Z,9.07
2023-04-21T14:33:48.780Z,11.18
2023-04-21T14:36:15.738Z,6.95
2023-04-21T14:38:43.244Z,7.53
2023-04-21T14:41:10.323Z,8.55
2023-04-21T14:43:37.217Z,7.03
2023-04-21T14:46:06.272Z,6.03
2023-04-21T14:48:33.513Z,7.72
2023-04-21T14:51:00.584Z,7.40
2023-04-21T14:53:27.336Z,7.30
2023-04-21T14:55:54.795Z,7.47
2023-04-21T14:58:21.677Z,7.13
2023-04-21T15:00:48.547Z,5.55
2023-04-21T15:03:15.802Z,5.75
2023-04-21T15:05:42.826Z,6.28
2023-04-21T15:08:10.141Z,5.47
2023-04-21T15:10:36.965Z,8.57
2023-04-21T15:13:03.780Z,7.53
2023-04-21T15:15:30.645Z,5.88
2023-04-21T15:17:57.500Z,5.13
2023-04-21T15:20:36.522Z,4.40
2023-04-21T15:23:08.069Z,4.55
2023-04-21T15:25:36.312Z,5.72
2023-04-21T15:28:03.176Z,4.80
2023-04-21T15:30:30.039Z,5.43
2023-04-21T15:32:56.789Z,4.80
2023-04-21T15:35:23.609Z,4.72
2023-04-21T15:37:50.403Z,6.28
2023-04-21T15:40:17.223Z,4.63
2023-04-21T15:42:43.919Z,5.28
2023-04-21T15:45:10.894Z,4.78
2023-04-21T15:47:37.818Z,4.43
2023-04-21T15:50:05.098Z,4.00
2023-04-21T15:52:31.881Z,4.35
2023-04-21T15:54:58.867Z,3.97
2023-04-21T15:57:28.358Z,3.50
2023-04-21T15:59:55.206Z,3.53
2023-04-21T16:02:22.190Z,3.70
2023-04-21T16:04:49.188Z,4.70
2023-04-21T16:07:16.014Z,4.15
2023-04-21T16:09:42.805Z,3.25
2023-04-21T16:12:10.552Z,4.18
2023-04-21T16:14:53.584Z,3.92
2023-04-21T16:17:26.459Z,4.57
2023-04-21T16:19:53.812Z,3.67
2023-04-21T16:22:20.874Z,3.28
2023-04-21T16:24:48.460Z,3.75
2023-04-21T16:27:15.584Z,4.88
2023-04-21T16:29:42.319Z,3.28
2023-04-21T16:32:09.202Z,4.50
2023-04-21T16:34:36.215Z,3.78
2023-04-21T16:37:03.267Z,4.13
2023-04-21T16:39:30.102Z,3.22
2023-04-21T16:41:56.879Z,3.97
2023-04-21T16:44:23.707Z,7.78
2023-04-21T16:46:50.604Z,3.97
2023-04-21T16:49:17.584Z,2.95
2023-04-21T16:51:45.519Z,4.38
2023-04-21T16:54:12.604Z,2.97
2023-04-21T16:56:39.647Z,3.25
2023-04-21T16:59:09.358Z,4.30
2023-04-21T17:01:36.156Z,3.25
2023-04-21T17:04:03.089Z,3.42
2023-04-21T17:06:30.376Z,5.75
2023-04-21T17:08:59.843Z,6.18
2023-04-21T17:11:28.738Z,3.25
2023-04-21T17:13:55.577Z,5.75
2023-04-21T17:16:22.608Z,7.93
2023-04-21T17:18:49.522Z,3.97
2023-04-21T17:21:16.284Z,3.35
2023-04-21T17:23:43.183Z,5.28
2023-04-21T17:26:12.342Z,3.92
2023-04-21T17:28:39.842Z,3.30
2023-04-21T17:31:15.159Z,3.53
2023-04-21T17:33:43.527Z,3.92
2023-04-21T17:36:10.703Z,3.28
2023-04-21T17:38:37.648Z,2.50
2023-04-21T17:41:06.800Z,6.60
2023-04-21T17:43:33.676Z,4.45
2023-04-21T17:46:00.638Z,3.78
2023-04-21T17:48:30.167Z,3.10
2023-04-21T17:50:56.912Z,3.08
2023-04-21T17:53:23.728Z,3.65
2023-04-21T17:55:51.043Z,3.83
2023-04-21T17:58:18.517Z,3.45
2023-04-21T18:00:45.313Z,3.25
2023-04-21T18:03:12.284Z,4.90
2023-04-21T18:08:14.517Z,3.22
2023-04-21T18:10:41.613Z,4.10
2023-04-21T18:13:08.389Z,3.08
2023-04-21T18:15:35.159Z,2.63
2023-04-21T18:18:01.963Z,2.90
2023-04-21T18:20:28.800Z,2.92
2023-04-21T18:22:55.590Z,3.88
2023-04-21T18:25:38.376Z,5.82
2023-04-21T18:28:07.945Z,3.78
2023-04-21T18:30:34.796Z,3.15
2023-04-21T18:33:01.767Z,3.70
2023-04-21T18:35:28.732Z,4.75
2023-04-21T18:37:55.609Z,5.28
2023-04-21T18:40:22.439Z,2.08
2023-04-21T18:42:49.142Z,0.70
2023-04-21T18:45:16.241Z,0.80
2023-04-21T18:47:43.064Z,1.58
2023-04-21T18:50:10.070Z,1.88
2023-04-21T18:52:36.988Z,2.58
2023-04-21T18:55:04.338Z,2.42
2023-04-21T18:57:31.285Z,1.02
2023-04-21T19:00:00.184Z,1.08
2023-04-21T19:02:28.556Z,1.35
2023-04-21T19:04:55.522Z,1.08
2023-04-21T19:07:22.364Z,2.67
2023-04-21T19:09:49.099Z,0.77
2023-04-21T19:12:16.589Z,4.70
2023-04-21T19:14:47.499Z,0.82
2023-04-21T19:17:14.956Z,1.88
2023-04-21T19:19:42.592Z,0.93
2023-04-21T19:22:09.335Z,1.20
2023-04-21T19:24:36.580Z,0.73
2023-04-21T19:27:05.479Z,1.50
2023-04-21T19:29:32.752Z,1.38
2023-04-21T19:31:59.726Z,4.30
2023-04-21T19:34:27.060Z,1.95
2023-04-21T19:36:59.540Z,1.63
2023-04-21T19:39:26.352Z,2.55
2023-04-21T19:41:53.071Z,1.08
2023-04-21T19:44:19.761Z,0.98
2023-04-21T19:46:46.692Z,1.45
2023-04-21T19:49:14.092Z,1.63
2023-04-21T19:51:41.401Z,0.50
2023-04-21T19:54:11.852Z,0.45
2023-04-21T19:56:39.981Z,1.75
2023-04-21T19:59:07.107Z,0.73
2023-04-21T20:01:34.491Z,1.25
2023-04-21T20:04:01.914Z,0.70
2023-04-21T20:06:29.059Z,1.25
2023-04-21T20:08:56.035Z,3.42
2023-04-21T20:11:23.351Z,2.90
2023-04-21T20:13:50.483Z,3.90
2023-04-21T20:16:20.219Z,1.13
2023-04-21T20:18:47.105Z,1.05
2023-04-21T20:21:13.852Z,1.75
2023-04-21T20:23:40.958Z,2.30
2023-04-21T20:26:07.740Z,1.30
2023-04-21T20:28:34.490Z,0.90
2023-04-21T20:31:01.252Z,1.33
2023-04-21T20:33:28.291Z,0.45
2023-04-21T20:35:55.527Z,2.42
2023-04-21T20:38:24.021Z,1.33
2023-04-21T20:40:52.539Z,1.35
2023-04-21T20:43:19.746Z,1.00
2023-04-21T20:45:47.422Z,1.20
2023-04-21T20:48:14.233Z,0.75
2023-04-21T20:50:42.191Z,1.77
2023-04-21T20:53:10.131Z,1.45
2023-04-21T20:55:37.007Z,3.50
2023-04-21T20:58:04.621Z,0.82
2023-04-21T21:00:34.869Z,2.30
2023-04-21T21:03:02.140Z,2.05
2023-04-21T21:05:30.377Z,1.23
2023-04-21T21:07:57.451Z,1.42
2023-04-21T21:10:24.375Z,0.60
2023-04-21T21:12:51.136Z,1.80
2023-04-21T21:15:17.969Z,1.60
2023-04-21T21:17:44.901Z,2.03
2023-04-21T21:20:11.880Z,1.95
2023-04-21T21:22:38.654Z,1.52
2023-04-21T21:25:05.954Z,1.33
2023-04-21T21:27:32.653Z,1.55
2023-04-21T21:29:59.481Z,0.88
2023-04-21T21:32:26.289Z,3.65
2023-04-21T21:34:53.125Z,2.22
2023-04-21T21:37:19.954Z,1.27
2023-04-21T21:39:46.895Z,2.13
2023-04-21T21:42:14.106Z,1.45
2023-04-21T21:44:41.794Z,1.55
2023-04-21T21:47:13.851Z,1.52
2023-04-21T21:49:51.669Z,1.75
2023-04-21T21:52:21.336Z,1.10
2023-04-21T21:54:53.130Z,1.58
2023-04-21T22:00:08.671Z,2.85
2023-04-21T22:02:36.118Z,2.50
2023-04-21T22:05:04.455Z,2.58
2023-04-21T22:07:34.782Z,1.88
2023-04-21T22:10:02.488Z,2.67
2023-04-21T22:12:32.310Z,2.60
2023-04-21T22:14:59.185Z,5.60
2023-04-21T22:17:25.985Z,3.60
2023-04-21T22:19:53.784Z,2.20
2023-04-21T22:22:20.600Z,1.25
2023-04-21T22:24:47.492Z,2.35
2023-04-21T22:27:14.239Z,1.88
2023-04-21T22:29:41.387Z,1.85
2023-04-21T22:32:08.991Z,1.75
2023-04-21T22:34:35.706Z,3.28
2023-04-21T22:37:02.683Z,3.58
2023-04-21T22:39:30.042Z,4.50
2023-04-21T22:41:57.399Z,1.10
2023-04-21T22:44:24.697Z,2.03
2023-04-21T22:46:53.022Z,1.23
2023-04-21T22:49:19.799Z,5.95
2023-04-21T22:51:47.321Z,11.05
2023-04-21T22:54:14.638Z,2.90
2023-04-21T22:56:41.874Z,1.75
2023-04-21T22:59:08.612Z,2.40
2023-04-21T23:01:35.381Z,1.50
2023-04-21T23:04:02.256Z,2.15
2023-04-21T23:06:29.176Z,2.15
2023-04-21T23:08:55.902Z,4.57
2023-04-21T23:11:22.675Z,2.75
2023-04-21T23:13:49.444Z,2.40
2023-04-21T23:16:16.513Z,2.15
2023-04-21T23:18:43.268Z,1.67
2023-04-21T23:21:10.029Z,2.08
2023-04-21T23:23:36.857Z,3.15
2023-04-21T23:26:03.681Z,1.30
2023-04-21T23:28:33.179Z,2.38
2023-04-21T23:31:00.083Z,2.50
2023-04-21T23:33:30.796Z,3.50
2023-04-21T23:35:57.773Z,3.22
2023-04-21T23:38:24.738Z,2.80
2023-04-21T23:40:51.695Z,2.25
2023-04-21T23:43:18.576Z,1.73
2023-04-21T23:45:45.463Z,4.28
2023-04-21T23:48:15.396Z,1.23
2023-04-21T23:50:42.358Z,2.85
2023-04-21T23:53:09.268Z,4.75
2023-04-21T23:55:36.432Z,2.67
2023-04-21T23:58:03.691Z,2.13
